createdAt,value
2017-04-30T00:00:31.101Z,1007.25
2017-04-30T00:01:32.524Z,1007.26
2017-04-30T00:02:33.946Z,1007.22
2017-04-30T00:03:35.368Z,1007.22
2017-04-30T00:04:36.788Z,1007.22
2017-04-30T00:05:38.217Z,1007.21
2017-04-30T00:06:39.642Z,1007.18
2017-04-30T00:07:41.790Z,1007.22
2017-04-30T00:08:43.216Z,1007.23
2017-04-30T00:09:44.647Z,1007.21
2017-04-30T00:10:46.071Z,1007.24
2017-04-30T00:11:47.487Z,1007.24
2017-04-30T00:12:48.902Z,1007.20
2017-04-30T00:13:50.324Z,1007.18
2017-04-30T00:14:51.749Z,1007.17
2017-04-30T00:15:53.171Z,1007.15
2017-04-30T00:16:54.593Z,1007.13
2017-04-30T00:17:56.016Z,1007.12
2017-04-30T00:18:57.445Z,1007.11
2017-04-30T00:19:58.867Z,1007.18
2017-04-30T00:21:00.286Z,1007.13
2017-04-30T00:22:01.705Z,1007.13
2017-04-30T00:23:03.130Z,1007.13
2017-04-30T00:24:04.549Z,1007.10
2017-04-30T00:25:05.978Z,1007.10
2017-04-30T00:26:07.393Z,1007.05
2017-04-30T00:27:08.814Z,1007.09
2017-04-30T00:28:10.237Z,1007.02
2017-04-30T00:29:11.659Z,1007.06
2017-04-30T00:30:13.074Z,1007.03
2017-04-30T00:31:14.493Z,1007.02
2017-04-30T00:32:15.915Z,1007.01
2017-04-30T00:33:17.336Z,1006.94
2017-04-30T00:34:18.793Z,1006.94
2017-04-30T00:35:20.211Z,1006.97
2017-04-30T00:36:21.639Z,1006.97
2017-04-30T00:37:23.068Z,1006.93
2017-04-30T00:38:24.492Z,1006.94
2017-04-30T00:39:25.912Z,1006.94
2017-04-30T00:40:27.415Z,1006.90
2017-04-30T00:41:28.880Z,1006.88
2017-04-30T00:42:30.298Z,1006.91
2017-04-30T00:43:31.717Z,1006.87
2017-04-30T00:44:33.151Z,1006.92
2017-04-30T00:45:34.662Z,1006.84
2017-04-30T00:46:36.111Z,1006.92
2017-04-30T00:47:37.494Z,1006.92
2017-04-30T00:48:38.914Z,1006.91
2017-04-30T00:49:40.341Z,1006.88
2017-04-30T00:50:41.767Z,1006.86
2017-04-30T00:51:43.187Z,1006.84
2017-04-30T00:52:44.699Z,1006.80
2017-04-30T00:53:46.117Z,1006.75
2017-04-30T00:54:47.538Z,1006.80
2017-04-30T00:55:49.758Z,1006.78
2017-04-30T00:56:50.322Z,1006.80
2017-04-30T00:57:51.744Z,1006.81
2017-04-30T00:58:53.169Z,1006.81
2017-04-30T00:59:54.594Z,1006.81
2017-04-30T01:00:56.017Z,1006.78
2017-04-30T01:01:57.438Z,1006.78
2017-04-30T01:02:58.882Z,1006.80
2017-04-30T01:04:00.302Z,1006.77
2017-04-30T01:05:01.725Z,1006.74
2017-04-30T01:06:03.147Z,1006.76
2017-04-30T01:07:04.569Z,1006.76
2017-04-30T01:08:05.985Z,1006.76
2017-04-30T01:09:07.401Z,1006.77
2017-04-30T01:10:08.829Z,1006.75
2017-04-30T01:11:10.248Z,1006.77
2017-04-30T01:12:11.669Z,1006.73
2017-04-30T01:13:13.089Z,1006.78
2017-04-30T01:14:14.508Z,1006.73
2017-04-30T01:15:15.937Z,1006.76
2017-04-30T01:16:17.348Z,1006.75
2017-04-30T01:17:18.769Z,1006.76
2017-04-30T01:18:20.196Z,1006.75
2017-04-30T01:19:21.636Z,1006.78
2017-04-30T01:20:23.058Z,1006.77
2017-04-30T01:21:24.477Z,1006.74
2017-04-30T01:22:25.897Z,1006.80
2017-04-30T01:23:27.317Z,1006.74
2017-04-30T01:24:29.521Z,1006.72
2017-04-30T01:25:30.947Z,1006.73
2017-04-30T01:26:32.371Z,1006.75
2017-04-30T01:27:33.789Z,1006.74
2017-04-30T01:28:35.224Z,1006.76
2017-04-30T01:29:36.648Z,1006.75
2017-04-30T01:30:38.079Z,1006.73
2017-04-30T01:31:39.496Z,1006.76
2017-04-30T01:32:40.912Z,1006.75
2017-04-30T01:33:42.331Z,1006.72
2017-04-30T01:34:43.753Z,1006.67
2017-04-30T01:35:45.657Z,1006.66
2017-04-30T01:36:47.652Z,1006.66
2017-04-30T01:37:49.079Z,1006.69
2017-04-30T01:38:50.499Z,1006.70
2017-04-30T01:39:51.914Z,1006.69
2017-04-30T01:40:53.333Z,1006.70
2017-04-30T01:41:54.780Z,1006.70
2017-04-30T01:42:56.172Z,1006.66
2017-04-30T01:43:57.592Z,1006.73
2017-04-30T01:44:59.012Z,1006.70
2017-04-30T01:46:00.425Z,1006.70
2017-04-30T01:47:01.855Z,1006.67
2017-04-30T01:48:03.275Z,1006.67
2017-04-30T01:49:04.704Z,1006.68
2017-04-30T01:50:06.127Z,1006.64
2017-04-30T01:51:07.545Z,1006.62
2017-04-30T01:52:08.969Z,1006.65
2017-04-30T01:53:10.386Z,1006.64
2017-04-30T01:54:11.808Z,1006.63
2017-04-30T01:55:13.230Z,1006.67
2017-04-30T01:56:14.645Z,1006.60
2017-04-30T01:57:16.066Z,1006.64
2017-04-30T01:58:17.485Z,1006.58
2017-04-30T01:59:18.915Z,1006.67
2017-04-30T02:00:20.329Z,1006.66
2017-04-30T02:01:21.746Z,1006.58
2017-04-30T02:02:23.171Z,1006.60
2017-04-30T02:03:24.596Z,1006.61
2017-04-30T02:04:26.710Z,1006.60
2017-04-30T02:05:28.126Z,1006.61
2017-04-30T02:06:30.282Z,1006.58
2017-04-30T02:07:30.906Z,1006.58
2017-04-30T02:08:32.330Z,1006.58
2017-04-30T02:09:33.748Z,1006.54
2017-04-30T02:10:35.164Z,1006.51
2017-04-30T02:11:36.586Z,1006.53
2017-04-30T02:12:38.006Z,1006.55
2017-04-30T02:13:39.426Z,1006.56
2017-04-30T02:14:40.846Z,1006.53
2017-04-30T02:15:42.268Z,1006.51
2017-04-30T02:16:43.683Z,1006.54
2017-04-30T02:17:45.098Z,1006.52
2017-04-30T02:18:47.071Z,1006.51
2017-04-30T02:19:48.497Z,1006.52
2017-04-30T02:20:49.928Z,1006.49
2017-04-30T02:21:51.338Z,1006.49
2017-04-30T02:22:52.856Z,1006.50
2017-04-30T02:23:54.276Z,1006.50
2017-04-30T02:24:55.699Z,1006.47
2017-04-30T02:25:57.120Z,1006.48
2017-04-30T02:26:58.540Z,1006.48
2017-04-30T02:27:59.964Z,1006.44
2017-04-30T02:29:01.384Z,1006.43
2017-04-30T02:30:02.815Z,1006.49
2017-04-30T02:31:04.236Z,1006.42
2017-04-30T02:32:05.669Z,1006.42
2017-04-30T02:33:07.090Z,1006.38
2017-04-30T02:34:08.511Z,1006.40
2017-04-30T02:35:09.929Z,1006.39
2017-04-30T02:36:11.358Z,1006.42
2017-04-30T02:37:12.770Z,1006.41
2017-04-30T02:38:14.781Z,1006.35
2017-04-30T02:39:16.231Z,1006.41
2017-04-30T02:40:17.647Z,1006.40
2017-04-30T02:41:19.063Z,1006.41
2017-04-30T02:42:20.482Z,1006.39
2017-04-30T02:43:21.903Z,1006.37
2017-04-30T02:44:23.316Z,1006.32
2017-04-30T02:45:24.732Z,1006.30
2017-04-30T02:46:26.155Z,1006.31
2017-04-30T02:47:27.582Z,1006.34
2017-04-30T02:48:29.004Z,1006.38
2017-04-30T02:49:30.430Z,1006.30
2017-04-30T02:50:31.851Z,1006.30
2017-04-30T02:51:33.269Z,1006.30
2017-04-30T02:52:34.702Z,1006.30
2017-04-30T02:53:36.120Z,1006.27
2017-04-30T02:54:37.538Z,1006.29
2017-04-30T02:55:38.966Z,1006.29
2017-04-30T02:56:40.391Z,1006.24
2017-04-30T02:57:41.807Z,1006.27
2017-04-30T02:58:43.231Z,1006.25
2017-04-30T02:59:44.649Z,1006.27
2017-04-30T03:00:46.074Z,1006.25
2017-04-30T03:01:47.496Z,1006.22
2017-04-30T03:02:48.918Z,1006.19
2017-04-30T03:03:50.340Z,1006.19
2017-04-30T03:04:51.757Z,1006.25
2017-04-30T03:05:53.181Z,1006.18
2017-04-30T03:06:54.601Z,1006.20
2017-04-30T03:07:56.019Z,1006.20
2017-04-30T03:08:57.444Z,1006.20
2017-04-30T03:09:58.857Z,1006.18
2017-04-30T03:11:00.277Z,1006.21
2017-04-30T03:12:01.701Z,1006.19
2017-04-30T03:13:03.120Z,1006.27
2017-04-30T03:14:04.536Z,1006.28
2017-04-30T03:15:05.954Z,1006.22
2017-04-30T03:16:07.380Z,1006.18
2017-04-30T03:17:08.800Z,1006.21
2017-04-30T03:18:10.220Z,1006.20
2017-04-30T03:19:11.639Z,1006.22
2017-04-30T03:20:13.063Z,1006.18
2017-04-30T03:21:14.477Z,1006.21
2017-04-30T03:22:15.882Z,1006.21
2017-04-30T03:23:17.305Z,1006.23
2017-04-30T03:24:18.723Z,1006.17
2017-04-30T03:25:20.172Z,1006.18
2017-04-30T03:26:21.560Z,1006.17
2017-04-30T03:27:22.975Z,1006.17
2017-04-30T03:28:24.399Z,1006.10
2017-04-30T03:29:25.818Z,1006.11
2017-04-30T03:30:27.235Z,1006.11
2017-04-30T03:31:28.657Z,1006.17
2017-04-30T03:32:30.086Z,1006.10
2017-04-30T03:33:31.505Z,1006.07
2017-04-30T03:34:32.921Z,1006.09
2017-04-30T03:35:34.348Z,1006.08
2017-04-30T03:36:36.651Z,1006.11
2017-04-30T03:37:38.071Z,1006.17
2017-04-30T03:38:39.485Z,1006.17
2017-04-30T03:39:40.905Z,1006.12
2017-04-30T03:40:42.328Z,1006.11
2017-04-30T03:41:43.747Z,1006.17
2017-04-30T03:42:45.166Z,1006.15
2017-04-30T03:43:46.591Z,1006.09
2017-04-30T03:44:48.007Z,1006.07
2017-04-30T03:45:49.431Z,1006.02
2017-04-30T03:46:50.850Z,1006.11
2017-04-30T03:47:52.267Z,1006.05
2017-04-30T03:48:53.694Z,1006.03
2017-04-30T03:49:55.115Z,1006.04
2017-04-30T03:50:56.550Z,1006.02
2017-04-30T03:51:57.973Z,1006.00
2017-04-30T03:52:59.388Z,1006.03
2017-04-30T03:54:00.812Z,1006.03
2017-04-30T03:55:02.234Z,1006.03
2017-04-30T03:56:03.649Z,1005.98
2017-04-30T03:57:05.073Z,1006.03
2017-04-30T03:58:06.486Z,1006.01
2017-04-30T03:59:07.909Z,1006.01
2017-04-30T04:00:09.327Z,1006.00
2017-04-30T04:01:10.750Z,1006.01
2017-04-30T04:02:12.167Z,1006.01
2017-04-30T04:03:13.594Z,1005.99
2017-04-30T04:04:15.010Z,1006.00
2017-04-30T04:05:16.442Z,1006.02
2017-04-30T04:06:17.911Z,1006.00
2017-04-30T04:07:19.339Z,1006.02
2017-04-30T04:08:20.764Z,1006.01
2017-04-30T04:09:22.858Z,1006.02
2017-04-30T04:10:24.818Z,1006.03
2017-04-30T04:11:26.235Z,1006.02
2017-04-30T04:12:27.659Z,1006.01
2017-04-30T04:13:29.074Z,1006.00
2017-04-30T04:14:30.498Z,1006.02
2017-04-30T04:15:31.927Z,1006.01
2017-04-30T04:16:33.358Z,1005.99
2017-04-30T04:17:34.770Z,1005.96
2017-04-30T04:18:36.197Z,1005.97
2017-04-30T04:19:37.617Z,1005.89
2017-04-30T04:20:39.045Z,1005.90
2017-04-30T04:21:40.468Z,1005.91
2017-04-30T04:22:41.888Z,1005.89
2017-04-30T04:23:43.350Z,1005.85
2017-04-30T04:24:44.737Z,1005.93
2017-04-30T04:25:46.160Z,1005.87
2017-04-30T04:26:47.578Z,1005.90
2017-04-30T04:27:49.001Z,1005.87
2017-04-30T04:28:50.430Z,1005.89
2017-04-30T04:29:52.487Z,1005.87
2017-04-30T04:30:53.911Z,1005.87
2017-04-30T04:31:55.333Z,1005.86
2017-04-30T04:32:56.752Z,1005.85
2017-04-30T04:33:58.178Z,1005.84
2017-04-30T04:34:59.601Z,1005.83
2017-04-30T04:36:01.025Z,1005.85
2017-04-30T04:37:02.452Z,1005.86
2017-04-30T04:38:03.870Z,1005.84
2017-04-30T04:39:05.297Z,1005.81
2017-04-30T04:40:06.724Z,1005.77
2017-04-30T04:41:08.147Z,1005.77
2017-04-30T04:42:09.573Z,1005.73
2017-04-30T04:43:11.000Z,1005.81
2017-04-30T04:44:12.414Z,1005.76
2017-04-30T04:45:13.844Z,1005.74
2017-04-30T04:46:15.275Z,1005.73
2017-04-30T04:47:16.706Z,1005.75
2017-04-30T04:48:18.140Z,1005.78
2017-04-30T04:49:19.560Z,1005.79
2017-04-30T04:50:20.994Z,1005.79
2017-04-30T04:51:22.419Z,1005.76
2017-04-30T04:52:23.846Z,1005.75
2017-04-30T04:53:25.268Z,1005.83
2017-04-30T04:54:26.694Z,1005.80
2017-04-30T04:55:28.113Z,1005.76
2017-04-30T04:56:29.540Z,1005.75
2017-04-30T04:57:30.954Z,1005.76
2017-04-30T04:58:32.374Z,1005.73
2017-04-30T04:59:33.798Z,1005.71
2017-04-30T05:00:35.221Z,1005.72
2017-04-30T05:01:37.278Z,1005.71
2017-04-30T05:02:38.699Z,1005.67
2017-04-30T05:03:40.125Z,1005.70
2017-04-30T05:04:41.563Z,1005.67
2017-04-30T05:05:42.985Z,1005.68
2017-04-30T05:06:44.410Z,1005.70
2017-04-30T05:07:45.832Z,1005.69
2017-04-30T05:08:47.259Z,1005.74
2017-04-30T05:09:48.678Z,1005.70
2017-04-30T05:10:50.105Z,1005.66
2017-04-30T05:11:51.524Z,1005.74
2017-04-30T05:12:52.948Z,1005.71
2017-04-30T05:13:54.368Z,1005.70
2017-04-30T05:14:55.791Z,1005.71
2017-04-30T05:15:57.221Z,1005.66
2017-04-30T05:16:58.644Z,1005.72
2017-04-30T05:18:00.069Z,1005.72
2017-04-30T05:19:01.503Z,1005.74
2017-04-30T05:20:02.930Z,1005.70
2017-04-30T05:21:04.350Z,1005.74
2017-04-30T05:22:05.774Z,1005.76
2017-04-30T05:23:07.197Z,1005.70
2017-04-30T05:24:08.620Z,1005.75
2017-04-30T05:25:10.042Z,1005.69
2017-04-30T05:26:11.501Z,1005.74
2017-04-30T05:27:12.890Z,1005.73
2017-04-30T05:28:14.321Z,1005.73
2017-04-30T05:29:15.744Z,1005.72
2017-04-30T05:30:17.175Z,1005.73
2017-04-30T05:31:18.592Z,1005.75
2017-04-30T05:32:20.023Z,1005.76
2017-04-30T05:33:21.442Z,1005.70
2017-04-30T05:34:22.867Z,1005.72
2017-04-30T05:35:24.292Z,1005.72
2017-04-30T05:36:25.714Z,1005.66
2017-04-30T05:37:27.165Z,1005.67
2017-04-30T05:38:28.592Z,1005.68
2017-04-30T05:39:30.022Z,1005.70
2017-04-30T05:40:31.446Z,1005.68
2017-04-30T05:41:32.878Z,1005.68
2017-04-30T05:42:34.989Z,1005.69
2017-04-30T05:43:36.414Z,1005.69
2017-04-30T05:44:37.839Z,1005.67
2017-04-30T05:45:39.262Z,1005.69
2017-04-30T05:46:40.687Z,1005.62
2017-04-30T05:47:42.115Z,1005.63
2017-04-30T05:48:43.543Z,1005.63
2017-04-30T05:49:44.974Z,1005.64
2017-04-30T05:50:46.393Z,1005.59
2017-04-30T05:51:47.814Z,1005.60
2017-04-30T05:52:49.244Z,1005.55
2017-04-30T05:53:50.668Z,1005.60
2017-04-30T05:54:52.083Z,1005.56
2017-04-30T05:55:53.516Z,1005.57
2017-04-30T05:56:54.943Z,1005.54
2017-04-30T05:57:56.369Z,1005.58
2017-04-30T05:58:57.786Z,1005.54
2017-04-30T05:59:59.211Z,1005.54
2017-04-30T06:01:00.632Z,1005.59
2017-04-30T06:02:02.058Z,1005.54
2017-04-30T06:03:03.507Z,1005.57
2017-04-30T06:04:04.930Z,1005.56
2017-04-30T06:05:06.352Z,1005.54
2017-04-30T06:06:07.784Z,1005.55
2017-04-30T06:07:09.209Z,1005.54
2017-04-30T06:08:10.632Z,1005.56
2017-04-30T06:09:12.052Z,1005.57
2017-04-30T06:10:13.482Z,1005.58
2017-04-30T06:11:14.907Z,1005.55
2017-04-30T06:12:16.339Z,1005.54
2017-04-30T06:13:17.761Z,1005.49
2017-04-30T06:14:19.193Z,1005.51
2017-04-30T06:15:20.632Z,1005.55
2017-04-30T06:16:22.053Z,1005.57
2017-04-30T06:17:23.480Z,1005.50
2017-04-30T06:18:24.907Z,1005.50
2017-04-30T06:19:26.333Z,1005.46
2017-04-30T06:20:27.752Z,1005.54
2017-04-30T06:21:29.172Z,1005.52
2017-04-30T06:22:30.600Z,1005.49
2017-04-30T06:23:32.029Z,1005.45
2017-04-30T06:24:33.455Z,1005.45
2017-04-30T06:25:34.869Z,1005.43
2017-04-30T06:26:36.289Z,1005.44
2017-04-30T06:27:37.729Z,1005.45
2017-04-30T06:28:39.162Z,1005.41
2017-04-30T06:29:40.590Z,1005.42
2017-04-30T06:30:42.019Z,1005.39
2017-04-30T06:31:43.443Z,1005.36
2017-04-30T06:32:44.870Z,1005.31
2017-04-30T06:33:46.300Z,1005.33
2017-04-30T06:34:47.740Z,1005.31
2017-04-30T06:35:49.173Z,1005.33
2017-04-30T06:36:50.599Z,1005.32
2017-04-30T06:37:52.026Z,1005.36
2017-04-30T06:38:53.455Z,1005.35
2017-04-30T06:39:54.876Z,1005.28
2017-04-30T06:40:56.304Z,1005.30
2017-04-30T06:41:57.733Z,1005.32
2017-04-30T06:42:59.164Z,1005.33
2017-04-30T06:44:00.587Z,1005.28
2017-04-30T06:45:02.013Z,1005.25
2017-04-30T06:46:03.439Z,1005.26
2017-04-30T06:47:04.870Z,1005.22
2017-04-30T06:48:06.296Z,1005.22
2017-04-30T06:49:07.724Z,1005.26
2017-04-30T06:50:09.152Z,1005.20
2017-04-30T06:51:10.582Z,1005.19
2017-04-30T06:52:12.009Z,1005.22
2017-04-30T06:53:13.435Z,1005.20
2017-04-30T06:54:14.886Z,1005.20
2017-04-30T06:55:16.294Z,1005.19
2017-04-30T06:56:17.720Z,1005.19
2017-04-30T06:57:19.143Z,1005.18
2017-04-30T06:58:20.576Z,1005.17
2017-04-30T06:59:22.000Z,1005.18
2017-04-30T07:00:23.440Z,1005.20
2017-04-30T07:01:24.863Z,1005.18
2017-04-30T07:02:26.293Z,1005.16
2017-04-30T07:03:27.723Z,1005.12
2017-04-30T07:04:29.152Z,1005.15
2017-04-30T07:05:30.616Z,1005.16
2017-04-30T07:06:32.012Z,1005.09
2017-04-30T07:07:34.336Z,1005.08
2017-04-30T07:08:35.774Z,1005.10
2017-04-30T07:09:37.197Z,1005.09
2017-04-30T07:10:38.680Z,1005.10
2017-04-30T07:11:40.110Z,1005.11
2017-04-30T07:12:41.533Z,1005.14
2017-04-30T07:13:42.970Z,1005.14
2017-04-30T07:14:44.406Z,1005.14
2017-04-30T07:15:45.831Z,1005.11
2017-04-30T07:16:47.265Z,1005.10
2017-04-30T07:17:48.739Z,1005.10
2017-04-30T07:18:50.165Z,1005.08
2017-04-30T07:19:51.612Z,1005.11
2017-04-30T07:20:53.028Z,1005.08
2017-04-30T07:21:54.986Z,1005.09
2017-04-30T07:22:56.419Z,1005.08
2017-04-30T07:23:57.844Z,1005.07
2017-04-30T07:24:59.274Z,1005.08
2017-04-30T07:26:00.704Z,1005.04
2017-04-30T07:27:03.068Z,1005.03
2017-04-30T07:28:04.501Z,1005.06
2017-04-30T07:29:05.930Z,1005.01
2017-04-30T07:30:07.369Z,1005.04
2017-04-30T07:31:08.800Z,1005.09
2017-04-30T07:32:10.230Z,1005.02
2017-04-30T07:33:11.664Z,1005.02
2017-04-30T07:34:13.880Z,1005.01
2017-04-30T07:35:15.306Z,1005.01
2017-04-30T07:36:16.767Z,1004.97
2017-04-30T07:37:18.205Z,1005.00
2017-04-30T07:38:19.634Z,1004.94
2017-04-30T07:39:21.056Z,1004.91
2017-04-30T07:40:22.490Z,1004.92
2017-04-30T07:41:23.920Z,1004.92
2017-04-30T07:42:25.361Z,1004.91
2017-04-30T07:43:26.787Z,1004.85
2017-04-30T07:44:28.214Z,1004.86
2017-04-30T07:45:29.650Z,1004.84
2017-04-30T07:46:31.103Z,1004.88
2017-04-30T07:47:32.537Z,1004.84
2017-04-30T07:48:33.979Z,1004.88
2017-04-30T07:49:35.409Z,1004.85
2017-04-30T07:50:36.876Z,1004.82
2017-04-30T07:51:38.297Z,1004.85
2017-04-30T07:52:39.730Z,1004.84
2017-04-30T07:53:41.169Z,1004.80
2017-04-30T07:54:42.671Z,1004.81
2017-04-30T07:55:45.085Z,1004.81
2017-04-30T07:56:46.513Z,1004.75
2017-04-30T07:57:47.942Z,1004.75
2017-04-30T07:58:49.379Z,1004.78
2017-04-30T07:59:50.811Z,1004.75
2017-04-30T08:00:52.239Z,1004.77
2017-04-30T08:01:53.666Z,1004.71
2017-04-30T08:02:55.098Z,1004.73
2017-04-30T08:03:56.551Z,1004.70
2017-04-30T08:04:57.978Z,1004.70
2017-04-30T08:05:59.416Z,1004.75
2017-04-30T08:07:00.845Z,1004.66
2017-04-30T08:08:02.276Z,1004.72
2017-04-30T08:09:03.749Z,1004.64
2017-04-30T08:10:05.142Z,1004.67
2017-04-30T08:11:06.572Z,1004.62
2017-04-30T08:12:08.006Z,1004.66
2017-04-30T08:13:09.432Z,1004.60
2017-04-30T08:14:10.869Z,1004.58
2017-04-30T08:15:12.297Z,1004.61
2017-04-30T08:16:13.741Z,1004.59
2017-04-30T08:17:15.168Z,1004.58
2017-04-30T08:18:16.592Z,1004.59
2017-04-30T08:19:18.023Z,1004.55
2017-04-30T08:20:19.457Z,1004.58
2017-04-30T08:21:20.890Z,1004.49
2017-04-30T08:22:22.327Z,1004.51
2017-04-30T08:23:23.768Z,1004.45
2017-04-30T08:24:25.194Z,1004.47
2017-04-30T08:25:26.632Z,1004.46
2017-04-30T08:26:28.067Z,1004.52
2017-04-30T08:27:29.494Z,1004.43
2017-04-30T08:28:30.935Z,1004.46
2017-04-30T08:29:32.373Z,1004.46
2017-04-30T08:30:33.807Z,1004.42
2017-04-30T08:31:35.237Z,1004.43
2017-04-30T08:32:36.677Z,1004.47
2017-04-30T08:33:38.100Z,1004.46
2017-04-30T08:34:39.535Z,1004.40
2017-04-30T08:35:40.966Z,1004.40
2017-04-30T08:36:42.396Z,1004.38
2017-04-30T08:37:43.836Z,1004.34
2017-04-30T08:38:45.266Z,1004.36
2017-04-30T08:39:46.697Z,1004.37
2017-04-30T08:40:48.124Z,1004.29
2017-04-30T08:41:49.552Z,1004.34
2017-04-30T08:42:50.982Z,1004.34
2017-04-30T08:43:52.419Z,1004.30
2017-04-30T08:44:53.859Z,1004.27
2017-04-30T08:45:55.285Z,1004.28
2017-04-30T08:46:56.720Z,1004.25
2017-04-30T08:47:58.148Z,1004.22
2017-04-30T08:48:59.592Z,1004.22
2017-04-30T08:50:01.024Z,1004.23
2017-04-30T08:51:02.451Z,1004.25
2017-04-30T08:52:03.887Z,1004.28
2017-04-30T08:53:05.323Z,1004.28
2017-04-30T08:54:06.755Z,1004.20
2017-04-30T08:55:08.184Z,1004.23
2017-04-30T08:56:09.623Z,1004.19
2017-04-30T08:57:11.046Z,1004.19
2017-04-30T08:58:12.482Z,1004.16
2017-04-30T08:59:13.921Z,1004.14
2017-04-30T09:00:15.362Z,1004.14
2017-04-30T09:01:16.798Z,1004.08
2017-04-30T09:02:18.844Z,1004.05
2017-04-30T09:03:20.288Z,1004.04
2017-04-30T09:04:21.724Z,1004.08
2017-04-30T09:05:23.158Z,1004.08
2017-04-30T09:06:24.591Z,1004.02
2017-04-30T09:07:26.021Z,1004.03
2017-04-30T09:08:27.449Z,1003.97
2017-04-30T09:09:29.496Z,1003.96
2017-04-30T09:10:30.922Z,1003.95
2017-04-30T09:11:32.357Z,1003.97
2017-04-30T09:12:33.788Z,1003.93
2017-04-30T09:13:35.226Z,1003.90
2017-04-30T09:14:36.672Z,1003.92
2017-04-30T09:15:38.112Z,1003.94
2017-04-30T09:16:39.541Z,1003.90
2017-04-30T09:17:40.981Z,1003.94
2017-04-30T09:18:42.409Z,1003.90
2017-04-30T09:19:43.847Z,1003.98
2017-04-30T09:20:45.300Z,1003.98
2017-04-30T09:21:46.739Z,1003.88
2017-04-30T09:22:48.174Z,1003.88
2017-04-30T09:23:50.092Z,1003.84
2017-04-30T09:24:51.528Z,1003.75
2017-04-30T09:25:53.027Z,1003.79
2017-04-30T09:26:54.434Z,1003.77
2017-04-30T09:27:55.868Z,1003.74
2017-04-30T09:28:57.303Z,1003.79
2017-04-30T09:29:58.749Z,1003.79
2017-04-30T09:31:00.178Z,1003.81
2017-04-30T09:32:01.611Z,1003.80
2017-04-30T09:33:03.057Z,1003.74
2017-04-30T09:34:04.496Z,1003.74
2017-04-30T09:35:05.933Z,1003.75
2017-04-30T09:36:07.370Z,1003.77
2017-04-30T09:37:08.805Z,1003.78
2017-04-30T09:38:10.237Z,1003.73
2017-04-30T09:39:11.675Z,1003.75
2017-04-30T09:40:13.107Z,1003.78
2017-04-30T09:41:14.536Z,1003.67
2017-04-30T09:42:15.980Z,1003.67
2017-04-30T09:43:17.417Z,1003.70
2017-04-30T09:44:18.858Z,1003.63
2017-04-30T09:45:20.297Z,1003.59
2017-04-30T09:46:21.732Z,1003.60
2017-04-30T09:47:23.167Z,1003.64
2017-04-30T09:48:24.608Z,1003.55
2017-04-30T09:49:26.050Z,1003.53
2017-04-30T09:50:27.487Z,1003.60
2017-04-30T09:51:28.919Z,1003.56
2017-04-30T09:52:30.356Z,1003.59
2017-04-30T09:53:31.787Z,1003.53
2017-04-30T09:54:33.223Z,1003.50
2017-04-30T09:55:34.659Z,1003.48
2017-04-30T09:56:36.106Z,1003.45
2017-04-30T09:57:37.542Z,1003.45
2017-04-30T09:58:38.983Z,1003.44
2017-04-30T09:59:40.427Z,1003.36
2017-04-30T10:00:41.859Z,1003.36
2017-04-30T10:01:43.335Z,1003.40
2017-04-30T10:02:44.769Z,1003.40
2017-04-30T10:03:46.213Z,1003.33
2017-04-30T10:04:47.648Z,1003.36
2017-04-30T10:05:49.083Z,1003.34
2017-04-30T10:06:50.532Z,1003.31
2017-04-30T10:07:51.969Z,1003.28
2017-04-30T10:08:53.420Z,1003.23
2017-04-30T10:09:54.855Z,1003.20
2017-04-30T10:10:56.289Z,1003.18
2017-04-30T10:11:57.728Z,1003.20
2017-04-30T10:12:59.170Z,1003.22
2017-04-30T10:14:00.603Z,1003.18
2017-04-30T10:15:02.051Z,1003.17
2017-04-30T10:16:03.504Z,1003.12
2017-04-30T10:17:04.960Z,1003.13
2017-04-30T10:18:06.393Z,1003.05
2017-04-30T10:19:07.836Z,1003.05
2017-04-30T10:20:09.291Z,1003.07
2017-04-30T10:21:10.726Z,1003.01
2017-04-30T10:22:12.182Z,1003.04
2017-04-30T10:23:13.594Z,1003.05
2017-04-30T10:24:15.026Z,1003.05
2017-04-30T10:25:16.462Z,1003.02
2017-04-30T10:26:17.899Z,1003.03
2017-04-30T10:27:19.344Z,1003.01
2017-04-30T10:28:20.781Z,1002.99
2017-04-30T10:29:22.218Z,1002.99
2017-04-30T10:30:23.653Z,1002.95
2017-04-30T10:31:25.087Z,1002.85
2017-04-30T10:32:26.533Z,1002.82
2017-04-30T10:33:27.962Z,1002.89
2017-04-30T10:34:29.403Z,1002.90
2017-04-30T10:35:30.842Z,1002.89
2017-04-30T10:36:32.277Z,1002.88
2017-04-30T10:37:33.713Z,1002.87
2017-04-30T10:38:35.150Z,1002.82
2017-04-30T10:39:37.355Z,1002.79
2017-04-30T10:40:38.784Z,1002.79
2017-04-30T10:41:40.225Z,1002.82
2017-04-30T10:42:41.657Z,1002.76
2017-04-30T10:43:43.101Z,1002.78
2017-04-30T10:44:44.535Z,1002.73
2017-04-30T10:45:45.970Z,1002.65
2017-04-30T10:46:47.413Z,1002.68
2017-04-30T10:47:48.860Z,1002.68
2017-04-30T10:48:50.290Z,1002.62
2017-04-30T10:49:51.729Z,1002.59
2017-04-30T10:50:53.215Z,1002.68
2017-04-30T10:51:54.656Z,1002.60
2017-04-30T10:52:56.095Z,1002.56
2017-04-30T10:53:57.528Z,1002.59
2017-04-30T10:54:58.965Z,1002.52
2017-04-30T10:56:00.398Z,1002.52
2017-04-30T10:57:01.834Z,1002.50
2017-04-30T10:58:03.293Z,1002.54
2017-04-30T10:59:04.736Z,1002.54
2017-04-30T11:00:06.170Z,1002.44
2017-04-30T11:01:07.614Z,1002.49
2017-04-30T11:02:09.050Z,1002.48
2017-04-30T11:03:10.497Z,1002.51
2017-04-30T11:04:11.942Z,1002.50
2017-04-30T11:05:13.382Z,1002.50
2017-04-30T11:06:14.825Z,1002.46
2017-04-30T11:07:16.268Z,1002.48
2017-04-30T11:08:17.705Z,1002.38
2017-04-30T11:09:19.153Z,1002.31
2017-04-30T11:10:20.587Z,1002.39
2017-04-30T11:11:22.026Z,1002.29
2017-04-30T11:12:23.467Z,1002.38
2017-04-30T11:13:24.913Z,1002.37
2017-04-30T11:14:26.355Z,1002.36
2017-04-30T11:15:27.789Z,1002.35
2017-04-30T11:16:29.225Z,1002.36
2017-04-30T11:17:30.662Z,1002.36
2017-04-30T11:18:32.099Z,1002.36
2017-04-30T11:19:33.540Z,1002.29
2017-04-30T11:20:34.974Z,1002.35
2017-04-30T11:21:36.414Z,1002.35
2017-04-30T11:22:37.855Z,1002.29
2017-04-30T11:23:39.287Z,1002.33
2017-04-30T11:24:40.725Z,1002.30
2017-04-30T11:25:42.170Z,1002.31
2017-04-30T11:26:43.601Z,1002.25
2017-04-30T11:27:45.036Z,1002.21
2017-04-30T11:28:46.476Z,1002.21
2017-04-30T11:29:47.910Z,1002.25
2017-04-30T11:30:49.343Z,1002.17
2017-04-30T11:31:50.775Z,1002.19
2017-04-30T11:32:52.219Z,1002.17
2017-04-30T11:33:53.651Z,1002.10
2017-04-30T11:34:55.119Z,1002.02
2017-04-30T11:35:56.560Z,1002.06
2017-04-30T11:36:57.995Z,1002.08
2017-04-30T11:37:59.443Z,1002.05
2017-04-30T11:39:00.878Z,1002.05
2017-04-30T11:40:02.321Z,1002.07
2017-04-30T11:41:03.760Z,1002.01
2017-04-30T11:42:05.228Z,1002.01
2017-04-30T11:43:06.666Z,1001.90
2017-04-30T11:44:08.102Z,1001.85
2017-04-30T11:45:09.552Z,1001.95
2017-04-30T11:46:11.013Z,1001.95
2017-04-30T11:47:12.449Z,1001.95
2017-04-30T11:48:13.889Z,1002.04
2017-04-30T11:49:15.343Z,1001.99
2017-04-30T11:50:16.787Z,1001.94
2017-04-30T11:51:18.229Z,1001.91
2017-04-30T11:52:19.670Z,1001.94
2017-04-30T11:53:21.112Z,1001.88
2017-04-30T11:54:22.548Z,1001.90
2017-04-30T11:55:23.991Z,1001.92
2017-04-30T11:56:25.427Z,1001.85
2017-04-30T11:57:26.872Z,1001.90
2017-04-30T11:58:28.308Z,1001.77
2017-04-30T11:59:29.755Z,1001.77
2017-04-30T12:00:31.191Z,1001.80
2017-04-30T12:01:32.632Z,1001.80
2017-04-30T12:02:34.072Z,1001.74
2017-04-30T12:03:35.519Z,1001.86
2017-04-30T12:04:36.956Z,1001.77
2017-04-30T12:05:38.401Z,1001.78
2017-04-30T12:06:39.829Z,1001.67
2017-04-30T12:07:41.314Z,1001.68
2017-04-30T12:08:42.760Z,1001.63
2017-04-30T12:09:44.223Z,1001.63
2017-04-30T12:10:45.657Z,1001.71
2017-04-30T12:11:47.109Z,1001.63
2017-04-30T12:12:48.550Z,1001.72
2017-04-30T12:13:49.993Z,1001.71
2017-04-30T12:14:51.425Z,1001.71
2017-04-30T12:15:52.862Z,1001.63
2017-04-30T12:16:54.302Z,1001.56
2017-04-30T12:17:55.746Z,1001.55
2017-04-30T12:18:57.190Z,1001.52
2017-04-30T12:19:58.632Z,1001.52
2017-04-30T12:21:00.077Z,1001.49
2017-04-30T12:22:01.519Z,1001.46
2017-04-30T12:23:02.994Z,1001.50